Language selection

My Weather Profile Weather Topics  | 

Atlantic - Labrador: Past 24 Hour Conditions

 

CFB Goose Bay

05:00 AM ADT 22 June 2021
Disclaimer

This table is a summary of hourly weather conditions for the past 24 hours.
Please note that these observations might not always be representative of weather conditions over their associated marine area.

Date / Time
(ADT)
Wind(knots) Conditions Visibility(km) Pressure(kPa) Air tempC) Relative humidity(%) Dew pointC)
22 June 2021
5:00 calm Mostly Cloudy 24 100.2 11 88 9
4:00 calm Mostly Cloudy 24 100.2 11 88 9
3:00 NNE 7 Mostly Cloudy 24 100.3 11 87 9
2:00 NNE 7 Partly Cloudy 24 100.4 11 88 9
1:00 NNE 7 Partly Cloudy 24 100.4 11 89 9
0:00 NNE 5 Partly Cloudy 24 100.5 11 87 9
21 June 2021
23:00 NE 8 Mainly Clear 24 100.6 11 83 8
22:00 NNE 8 Mainly Clear 24 100.6 12 79 9
21:00 NNE 8 Mainly Sunny 24 100.6 14 73 9
20:00 NNE 7 Mainly Sunny 24 100.6 15 70 9
19:00 NNE 7 Mainly Sunny 24 100.6 16 65 10
18:00 NE 10 Mainly Sunny 24 100.7 16 65 10
17:00 NNE 5 Mainly Sunny 24 100.7 16 64 10
16:00 calm Mainly Sunny 24 100.7 16 65 10
15:00 calm Mostly Cloudy 24 100.7 15 67 9
14:00 calm Cloudy 24 100.8 14 70 9
13:00 calm Cloudy 24 100.8 13 71 8
12:00 N 3 Cloudy 24 100.8 12 73 7
11:00 calm Cloudy 24 100.8 11 75 7
10:00 NNW 5 Cloudy 24 100.8 10 78 6
9:00 WNW 5 Cloudy 24 100.8 9 79 6
8:00 WNW 4 Cloudy 24 100.7 9 81 6
7:00 calm Cloudy 24 100.7 8 83 6
6:00 W 5 Cloudy 24 100.6 8 85 6
5:00 W 6 Cloudy 24 100.6 8 84 6

Zoom-in to make a selection

Map of Atlantic - Labrador marine weather areas Kangiqsualujjuaq Airport Cape Kakkiviak Cape Kiglapait Cartwright Airport CFB Goose Bay Hopedale Mary's Harbour Nain Airport Makkovik Airport Saglek Tukialik Bay
Legend:
buoy Buoy
land station Land Station

Atlantic - Labrador Area

Another Region

What we are doing

Date modified: